Time;durP1;ratioP1;P1;durP2;ratioP2;P2;SDS_P1;SDS_P2;PMS_P1;PMS_P2;Temp;Humidity;BMP_temperature;BMP_pressure;BME280_temperature;BME280_humidity;BME280_pressure;Samples;Min_cycle;Max_cycle;Signal;HPM_P1;HPM_P2
2023/04/26 00:00:23;;;;;;;11.90;4.70;;;;;;;;;;107640;1249;24249;-79
2023/04/26 00:03:11;;;;;;;9.60;4.70;;;;;;;;;;110810;1250;22881;-79
2023/04/26 00:05:38;;;;;;;11.20;5.50;;;;;;;;;;110869;1250;22462;-79
2023/04/26 00:08:04;;;;;;;10.30;5.20;;;;;;;;;;110891;1250;22351;-79
2023/04/26 00:10:31;;;;;;;11.50;5.50;;;;;;;;;;110869;1249;22355;-79
2023/04/26 00:12:57;;;;;;;11.40;4.70;;;;;;;;;;110885;1250;22474;-79
2023/04/26 00:15:23;;;;;;;10.10;5.30;;;;;;;;;;110828;1249;22275;-79
2023/04/26 00:17:50;;;;;;;19.20;7.20;;;;;;;;;;110870;1250;22818;-79
2023/04/26 00:20:17;;;;;;;16.10;5.90;;;;;;;;;;110839;1250;22498;-79
2023/04/26 00:22:43;;;;;;;12.50;5.30;;;;;;;;;;110874;1250;22311;-79
2023/04/26 00:25:10;;;;;;;11.50;5.30;;;;;;;;;;110860;1249;22249;-79
2023/04/26 00:27:36;;;;;;;12.60;4.60;;;;;;;;;;108082;1250;26460;-79
2023/04/26 00:30:02;;;;;;;16.80;5.90;;;;;;;;;;107740;1250;25563;-79
2023/04/26 00:32:29;;;;;;;14.20;6.20;;;;;;;;;;107710;1252;22456;-78
2023/04/26 00:34:56;;;;;;;14.80;6.10;;;;;;;;;;107695;1250;25288;-79
2023/04/26 00:37:22;;;;;;;15.90;5.10;;;;;;;;;;108168;1249;24399;-80
2023/04/26 00:39:48;;;;;;;17.10;5.80;;;;;;;;;;109078;1252;24240;-79
2023/04/26 00:42:15;;;;;;;13.40;5.60;;;;;;;;;;107726;1250;25335;-79
2023/04/26 00:44:41;;;;;;;14.10;7.60;;;;;;;;;;107717;1250;23334;-79
2023/04/26 00:47:08;;;;;;;13.00;6.50;;;;;;;;;;107676;1250;24199;-79
2023/04/26 00:49:34;;;;;;;17.60;5.90;;;;;;;;;;107716;1250;24248;-79
2023/04/26 00:52:01;;;;;;;11.80;6.40;;;;;;;;;;107683;1250;55663;-79
2023/04/26 00:54:27;;;;;;;12.00;6.70;;;;;;;;;;107764;1250;22617;-79
2023/04/26 00:56:54;;;;;;;19.30;7.10;;;;;;;;;;107728;1250;22551;-79
2023/04/26 00:59:20;;;;;;;17.00;7.20;;;;;;;;;;107735;1250;23244;-79
2023/04/26 01:01:47;;;;;;;15.50;7.50;;;;;;;;;;107799;1253;23220;-79
2023/04/26 01:04:14;;;;;;;14.50;7.00;;;;;;;;;;107922;1248;24295;-79
2023/04/26 01:06:41;;;;;;;15.00;7.60;;;;;;;;;;107888;1247;22519;-79
2023/04/26 01:09:08;;;;;;;17.50;7.50;;;;;;;;;;107894;1247;23265;-79
2023/04/26 01:11:35;;;;;;;11.80;5.90;;;;;;;;;;107727;1248;25558;-78
2023/04/26 01:14:02;;;;;;;13.90;6.80;;;;;;;;;;107671;1250;22562;-79
2023/04/26 01:16:29;;;;;;;15.90;5.50;;;;;;;;;;107901;1252;25390;-79
2023/04/26 01:18:56;;;;;;;17.20;7.10;;;;;;;;;;107867;1248;25399;-79
2023/04/26 01:21:23;;;;;;;15.10;6.50;;;;;;;;;;110518;1247;22421;-79
2023/04/26 01:23:50;;;;;;;11.40;6.50;;;;;;;;;;111012;1248;22511;-79
2023/04/26 01:26:16;;;;;;;16.10;7.10;;;;;;;;;;111029;1248;22491;-79
2023/04/26 01:28:45;;;;;;;12.20;6.40;;;;;;;;;;110941;1250;22234;-79
2023/04/26 01:31:11;;;;;;;11.80;6.10;;;;;;;;;;110909;1250;22342;-79
2023/04/26 01:33:37;;;;;;;14.50;6.60;;;;;;;;;;110904;1248;22198;-79
2023/04/26 01:36:10;;;;;;;14.90;6.90;;;;;;;;;;110889;1249;22319;-79
2023/04/26 01:38:36;;;;;;;15.80;6.40;;;;;;;;;;110908;1249;22363;-79
2023/04/26 01:41:03;;;;;;;11.90;5.50;;;;;;;;;;110903;1250;22234;-79
2023/04/26 01:43:29;;;;;;;14.90;5.90;;;;;;;;;;110896;1250;22775;-79
2023/04/26 01:45:56;;;;;;;16.40;6.60;;;;;;;;;;107805;1253;22544;-79
2023/04/26 01:48:22;;;;;;;11.80;6.80;;;;;;;;;;107662;1253;22514;-79
2023/04/26 01:50:48;;;;;;;13.50;5.30;;;;;;;;;;107730;1252;25394;-79
2023/04/26 01:53:15;;;;;;;14.00;5.30;;;;;;;;;;107717;1248;22520;-79
2023/04/26 01:55:41;;;;;;;10.50;5.30;;;;;;;;;;107724;1253;22982;-78
2023/04/26 01:58:07;;;;;;;11.90;5.10;;;;;;;;;;107671;1250;22586;-78
2023/04/26 02:00:34;;;;;;;14.40;6.50;;;;;;;;;;107556;1249;156205;-78
2023/04/26 02:03:00;;;;;;;10.70;4.40;;;;;;;;;;107682;1251;23052;-78
2023/04/26 02:05:26;;;;;;;12.40;4.70;;;;;;;;;;107706;1251;24238;-79
2023/04/26 02:07:53;;;;;;;10.10;6.00;;;;;;;;;;107790;1251;57662;-79
2023/04/26 02:10:19;;;;;;;9.80;4.70;;;;;;;;;;107712;1252;44073;-79
2023/04/26 02:12:45;;;;;;;7.80;5.10;;;;;;;;;;107698;1251;23158;-79
2023/04/26 02:15:12;;;;;;;11.40;5.30;;;;;;;;;;107716;1253;22558;-79
2023/04/26 02:17:39;;;;;;;10.30;5.70;;;;;;;;;;107698;1251;23280;-79
2023/04/26 02:20:09;;;;;;;11.90;5.10;;;;;;;;;;107728;1253;27309;-79
2023/04/26 02:22:35;;;;;;;14.90;4.70;;;;;;;;;;108633;1249;22415;-79
2023/04/26 02:25:02;;;;;;;17.60;6.60;;;;;;;;;;110903;1251;22169;-79
2023/04/26 02:27:28;;;;;;;10.30;4.50;;;;;;;;;;110891;1251;22342;-79
2023/04/26 02:29:55;;;;;;;9.00;4.90;;;;;;;;;;110877;1251;22145;-79
2023/04/26 02:32:21;;;;;;;15.30;6.00;;;;;;;;;;110910;1251;22305;-79
2023/04/26 02:34:47;;;;;;;15.40;5.40;;;;;;;;;;110898;1253;22894;-79
2023/04/26 02:37:14;;;;;;;15.80;6.60;;;;;;;;;;110919;1248;23060;-79
2023/04/26 02:39:40;;;;;;;11.20;4.80;;;;;;;;;;110878;1251;22262;-79
2023/04/26 02:42:09;;;;;;;12.80;5.90;;;;;;;;;;110669;1251;59576;-79
2023/04/26 02:44:38;;;;;;;;;;;;;;;;;;110905;1251;23054;-79
2023/04/26 02:47:04;;;;;;;17.70;5.40;;;;;;;;;;110868;1249;22158;-79
2023/04/26 02:49:31;;;;;;;14.00;5.10;;;;;;;;;;110888;1249;22415;-79
2023/04/26 02:51:57;;;;;;;24.70;5.80;;;;;;;;;;110900;1250;22153;-79
2023/04/26 02:54:23;;;;;;;15.70;5.20;;;;;;;;;;110915;1250;22208;-79
2023/04/26 02:56:50;;;;;;;15.60;5.70;;;;;;;;;;110921;1251;22571;-79
2023/04/26 02:59:16;;;;;;;11.00;4.90;;;;;;;;;;110899;1250;22265;-79
2023/04/26 03:01:42;;;;;;;15.10;5.80;;;;;;;;;;110893;1247;38409;-79
2023/04/26 03:04:09;;;;;;;13.40;4.60;;;;;;;;;;111004;1247;46559;-80
2023/04/26 03:06:35;;;;;;;12.80;5.70;;;;;;;;;;111022;1248;22789;-79
2023/04/26 03:09:01;;;;;;;10.50;5.30;;;;;;;;;;110995;1248;22378;-79
2023/04/26 03:11:27;;;;;;;12.70;5.70;;;;;;;;;;111000;1247;22263;-79
2023/04/26 03:13:54;;;;;;;16.90;5.60;;;;;;;;;;111000;1248;22852;-79
2023/04/26 03:16:22;;;;;;;16.10;6.70;;;;;;;;;;111011;1248;22295;-79
2023/04/26 03:18:48;;;;;;;14.00;5.20;;;;;;;;;;111026;1248;23108;-79
2023/04/26 03:21:14;;;;;;;16.00;6.60;;;;;;;;;;110946;1247;22909;-79
2023/04/26 03:23:41;;;;;;;15.60;7.90;;;;;;;;;;108120;1252;22461;-79
2023/04/26 03:26:07;;;;;;;14.30;6.90;;;;;;;;;;111024;1247;22445;-79
2023/04/26 03:28:33;;;;;;;13.90;8.50;;;;;;;;;;110991;1249;22338;-79
2023/04/26 03:31:00;;;;;;;16.00;6.10;;;;;;;;;;110984;1251;22226;-79
2023/04/26 03:33:27;;;;;;;7.60;4.90;;;;;;;;;;110918;1248;22470;-77
2023/04/26 03:35:53;;;;;;;10.20;5.00;;;;;;;;;;110929;1249;23576;-77
2023/04/26 03:38:19;;;;;;;8.80;4.60;;;;;;;;;;109723;1251;24239;-80
2023/04/26 03:40:46;;;;;;;12.10;5.20;;;;;;;;;;107706;1251;25261;-80
2023/04/26 03:43:12;;;;;;;15.10;5.20;;;;;;;;;;107687;1252;22954;-80
2023/04/26 03:45:39;;;;;;;12.80;4.50;;;;;;;;;;107708;1252;22945;-79
2023/04/26 03:48:05;;;;;;;11.90;4.80;;;;;;;;;;107711;1251;24196;-80
2023/04/26 03:50:32;;;;;;;11.90;5.40;;;;;;;;;;107762;1251;22539;-80
2023/04/26 03:52:58;;;;;;;11.10;4.80;;;;;;;;;;107772;1251;23222;-79
2023/04/26 03:55:25;;;;;;;10.50;4.40;;;;;;;;;;107732;1251;23112;-79
2023/04/26 03:57:52;;;;;;;16.40;5.50;;;;;;;;;;107621;1251;22526;-79
2023/04/26 04:00:19;;;;;;;9.60;4.40;;;;;;;;;;107694;1253;22642;-79
2023/04/26 04:02:45;;;;;;;14.20;4.80;;;;;;;;;;107711;1253;59768;-80
2023/04/26 04:05:11;;;;;;;30.50;13.90;;;;;;;;;;107754;1254;22634;-79
2023/04/26 04:07:38;;;;;;;14.80;6.00;;;;;;;;;;107415;1251;61759;-79
2023/04/26 04:10:05;;;;;;;10.90;5.00;;;;;;;;;;107074;1251;62045;-79
2023/04/26 04:12:31;;;;;;;16.00;6.50;;;;;;;;;;107530;1248;59006;-79
2023/04/26 04:14:57;;;;;;;17.70;9.70;;;;;;;;;;107757;1251;22535;-79
2023/04/26 04:17:24;;;;;;;23.50;10.50;;;;;;;;;;107670;1253;22604;-79
2023/04/26 04:19:50;;;;;;;29.50;12.40;;;;;;;;;;107761;1248;24224;-79
2023/04/26 04:22:16;;;;;;;57.30;21.20;;;;;;;;;;107766;1251;22680;-79
2023/04/26 04:24:43;;;;;;;69.80;25.40;;;;;;;;;;107677;1251;24053;-79
2023/04/26 04:27:10;;;;;;;54.00;20.60;;;;;;;;;;108280;1251;26365;-80
2023/04/26 04:29:37;;;;;;;37.80;15.10;;;;;;;;;;108263;1249;62494;-79
2023/04/26 04:32:04;;;;;;;22.90;9.70;;;;;;;;;;108369;1251;22646;-80
2023/04/26 04:34:33;;;;;;;18.10;9.70;;;;;;;;;;108340;1251;25532;-80
2023/04/26 04:36:59;;;;;;;50.60;25.00;;;;;;;;;;108348;1250;23220;-80
2023/04/26 04:39:26;;;;;;;15.00;8.80;;;;;;;;;;108348;1251;22530;-79
2023/04/26 04:41:53;;;;;;;20.30;9.80;;;;;;;;;;108514;1252;23004;-77
2023/04/26 04:44:20;;;;;;;15.40;7.60;;;;;;;;;;107727;1253;25277;-77
2023/04/26 04:46:46;;;;;;;21.10;11.20;;;;;;;;;;107732;1252;22527;-77
2023/04/26 04:49:13;;;;;;;24.70;10.00;;;;;;;;;;107768;1251;22998;-77
2023/04/26 04:51:40;;;;;;;26.40;9.80;;;;;;;;;;107780;1250;26507;-80
2023/04/26 04:54:10;;;;;;;33.90;12.80;;;;;;;;;;107775;1249;22538;-79
2023/04/26 04:56:37;;;;;;;28.80;11.40;;;;;;;;;;107824;1251;24270;-79
2023/04/26 04:59:03;;;;;;;25.70;9.60;;;;;;;;;;108115;1251;22617;-80
2023/04/26 05:01:33;;;;;;;17.20;7.00;;;;;;;;;;108267;1248;22531;-79
2023/04/26 05:03:59;;;;;;;13.90;6.00;;;;;;;;;;107830;1253;22668;-80
2023/04/26 05:06:26;;;;;;;14.30;6.00;;;;;;;;;;108699;1248;22432;-80
2023/04/26 05:08:53;;;;;;;11.50;5.80;;;;;;;;;;108408;1252;22518;-80
2023/04/26 05:11:20;;;;;;;11.90;5.40;;;;;;;;;;109083;1251;22752;-80
2023/04/26 05:13:47;;;;;;;17.90;5.70;;;;;;;;;;109120;1247;22523;-80
2023/04/26 05:16:13;;;;;;;12.40;4.60;;;;;;;;;;108714;1250;23702;-78
2023/04/26 05:18:39;;;;;;;14.80;4.50;;;;;;;;;;107853;1251;22527;-79
2023/04/26 05:21:06;;;;;;;11.10;4.40;;;;;;;;;;107819;1251;22518;-79
2023/04/26 05:23:35;;;;;;;11.80;4.90;;;;;;;;;;107760;1248;23205;-79
2023/04/26 05:26:01;;;;;;;;;;;;;;;;;;108158;1250;22538;-79
2023/04/26 05:28:28;;;;;;;13.90;4.20;;;;;;;;;;107830;1250;22734;-79
2023/04/26 05:30:54;;;;;;;10.00;4.60;;;;;;;;;;107840;1249;22524;-78
2023/04/26 05:33:21;;;;;;;14.00;5.20;;;;;;;;;;107862;1251;25374;-79
2023/04/26 05:35:47;;;;;;;15.30;4.90;;;;;;;;;;107866;1251;25271;-78
2023/04/26 05:38:14;;;;;;;15.50;6.30;;;;;;;;;;107804;1252;25221;-78
2023/04/26 05:40:40;;;;;;;10.60;4.80;;;;;;;;;;107875;1251;56991;-78
2023/04/26 05:43:06;;;;;;;10.70;5.40;;;;;;;;;;107924;1251;57754;-79
2023/04/26 05:45:33;;;;;;;12.10;5.10;;;;;;;;;;107923;1251;24229;-79
2023/04/26 05:47:59;;;;;;;13.80;4.50;;;;;;;;;;108004;1251;23250;-79
2023/04/26 05:50:26;;;;;;;56.00;21.00;;;;;;;;;;108106;1251;22566;-79
2023/04/26 05:52:52;;;;;;;39.70;16.20;;;;;;;;;;107823;1252;23022;-79
2023/04/26 05:55:19;;;;;;;32.40;10.70;;;;;;;;;;107837;1251;22532;-79
2023/04/26 05:57:45;;;;;;;19.00;5.10;;;;;;;;;;109225;1250;22486;-79
2023/04/26 06:00:12;;;;;;;20.60;10.00;;;;;;;;;;110709;1247;22415;-79
2023/04/26 06:02:38;;;;;;;15.00;6.10;;;;;;;;;;110729;1249;22328;-79
2023/04/26 06:05:05;;;;;;;13.30;6.80;;;;;;;;;;109090;1249;25590;-79
2023/04/26 06:07:32;;;;;;;9.50;4.60;;;;;;;;;;107787;1248;25214;-79
2023/04/26 06:10:01;;;;;;;9.90;5.10;;;;;;;;;;108113;1250;23163;-79
2023/04/26 06:12:28;;;;;;;13.00;4.70;;;;;;;;;;108017;1248;22532;-79
2023/04/26 06:14:54;;;;;;;10.90;4.70;;;;;;;;;;107895;1249;24222;-79
2023/04/26 06:17:20;;;;;;;14.00;5.30;;;;;;;;;;107929;1250;24076;-78
2023/04/26 06:19:47;;;;;;;15.00;5.80;;;;;;;;;;108095;1248;22581;-79
2023/04/26 06:22:14;;;;;;;10.30;4.80;;;;;;;;;;108338;1249;25489;-79
2023/04/26 06:24:40;;;;;;;14.80;4.90;;;;;;;;;;108345;1248;22554;-79
2023/04/26 06:27:06;;;;;;;13.00;4.80;;;;;;;;;;108004;1251;22538;-79
2023/04/26 06:29:33;;;;;;;9.00;3.40;;;;;;;;;;108115;1249;23266;-79
2023/04/26 06:31:59;;;;;;;8.20;4.40;;;;;;;;;;108421;1251;23267;-78
2023/04/26 06:34:26;;;;;;;7.60;3.80;;;;;;;;;;108480;1249;24215;-79
2023/04/26 06:36:52;;;;;;;9.60;3.80;;;;;;;;;;108047;1249;23655;-79
2023/04/26 06:39:18;;;;;;;9.20;3.50;;;;;;;;;;108119;1251;22927;-79
2023/04/26 06:41:45;;;;;;;14.50;3.60;;;;;;;;;;108259;1251;22549;-79
2023/04/26 06:44:11;;;;;;;8.90;3.70;;;;;;;;;;108712;1252;22536;-79
2023/04/26 06:46:38;;;;;;;6.80;3.60;;;;;;;;;;108773;1247;24599;-78
2023/04/26 06:49:04;;;;;;;8.10;3.30;;;;;;;;;;108605;1250;22552;-78
2023/04/26 06:51:31;;;;;;;9.90;3.80;;;;;;;;;;108339;1250;23095;-78
2023/04/26 06:54:00;;;;;;;7.70;3.80;;;;;;;;;;108311;1250;23218;-78
2023/04/26 06:56:27;;;;;;;9.80;3.70;;;;;;;;;;108095;1250;22638;-78
2023/04/26 06:59:03;;;;;;;9.50;4.00;;;;;;;;;;108047;1253;24888;-78
2023/04/26 07:01:32;;;;;;;10.40;5.10;;;;;;;;;;107838;1251;62031;-78
2023/04/26 07:04:00;;;;;;;12.10;6.00;;;;;;;;;;107532;1251;62139;-78
2023/04/26 07:06:26;;;;;;;19.00;6.60;;;;;;;;;;110449;1247;59501;-78
2023/04/26 07:08:53;;;;;;;10.60;4.10;;;;;;;;;;108594;1250;27404;-79
2023/04/26 07:11:19;;;;;;;7.60;3.80;;;;;;;;;;109760;1250;22651;-78
2023/04/26 07:13:46;;;;;;;12.80;5.00;;;;;;;;;;107898;1248;23266;-79
2023/04/26 07:16:12;;;;;;;10.50;3.60;;;;;;;;;;107859;1248;25861;-78
2023/04/26 07:18:39;;;;;;;10.70;3.80;;;;;;;;;;107896;1254;22528;-78
2023/04/26 07:21:05;;;;;;;9.40;5.20;;;;;;;;;;108157;1250;55346;-78
2023/04/26 07:23:31;;;;;;;9.70;5.40;;;;;;;;;;107907;1250;61637;-78
2023/04/26 07:26:00;;;;;;;7.50;3.90;;;;;;;;;;107789;1251;62034;-78
2023/04/26 07:28:26;;;;;;;12.00;4.20;;;;;;;;;;107595;1252;61972;-78
2023/04/26 07:30:53;;;;;;;9.70;4.50;;;;;;;;;;108592;1251;25292;-79
2023/04/26 07:33:19;;;;;;;13.40;5.20;;;;;;;;;;110761;1250;22476;-79
2023/04/26 07:35:52;;;;;;;23.40;8.50;;;;;;;;;;110732;1250;23100;-79
2023/04/26 07:38:18;;;;;;;10.10;4.30;;;;;;;;;;110376;1250;22531;-80
2023/04/26 07:40:45;;;;;;;11.00;3.70;;;;;;;;;;108115;1250;25323;-80
2023/04/26 07:43:12;;;;;;;8.50;4.40;;;;;;;;;;108003;1248;22613;-79
2023/04/26 07:45:38;;;;;;;8.20;3.50;;;;;;;;;;107899;1249;22521;-78
2023/04/26 07:48:05;;;;;;;11.60;3.60;;;;;;;;;;108079;1252;22556;-78
2023/04/26 07:50:31;;;;;;;7.50;3.20;;;;;;;;;;108052;1249;22652;-78
2023/04/26 07:52:58;;;;;;;8.70;4.40;;;;;;;;;;108078;1250;25526;-78
2023/04/26 07:55:24;;;;;;;9.60;3.60;;;;;;;;;;108052;1250;22570;-78
2023/04/26 07:57:51;;;;;;;5.90;2.80;;;;;;;;;;108117;1248;23292;-78
2023/04/26 08:00:17;;;;;;;7.60;3.20;;;;;;;;;;108564;1251;22538;-78
2023/04/26 08:02:47;;;;;;;7.90;3.10;;;;;;;;;;108556;1248;24386;-78
2023/04/26 08:05:14;;;;;;;11.60;2.80;;;;;;;;;;109556;1248;23480;-78
2023/04/26 08:07:40;;;;;;;6.10;2.90;;;;;;;;;;110769;1247;22251;-78
2023/04/26 08:10:07;;;;;;;8.20;2.90;;;;;;;;;;110887;1249;22567;-78
2023/04/26 08:12:34;;;;;;;7.50;4.20;;;;;;;;;;110741;1250;23196;-78
2023/04/26 08:15:01;;;;;;;7.70;3.40;;;;;;;;;;108229;1249;25278;-78
2023/04/26 08:17:27;;;;;;;8.20;3.50;;;;;;;;;;107903;1248;22538;-78
2023/04/26 08:19:53;;;;;;;7.10;2.70;;;;;;;;;;108000;1250;22551;-78
2023/04/26 08:22:20;;;;;;;6.20;3.30;;;;;;;;;;108626;1250;23189;-79
2023/04/26 08:24:47;;;;;;;6.30;3.40;;;;;;;;;;110011;1250;22570;-79
2023/04/26 08:27:13;;;;;;;5.90;3.60;;;;;;;;;;108071;1250;23139;-78
2023/04/26 08:29:40;;;;;;;9.80;3.90;;;;;;;;;;108319;1249;23564;-79
2023/04/26 08:32:06;;;;;;;14.60;3.90;;;;;;;;;;108269;1249;56289;-78
2023/04/26 08:34:32;;;;;;;6.40;2.50;;;;;;;;;;108218;1249;22544;-78
2023/04/26 08:36:59;;;;;;;8.20;2.90;;;;;;;;;;108222;1248;57187;-79
2023/04/26 08:39:26;;;;;;;8.60;3.50;;;;;;;;;;107705;1249;61930;-78
2023/04/26 08:41:56;;;;;;;8.40;2.40;;;;;;;;;;108166;1248;23231;-78
2023/04/26 08:44:23;;;;;;;4.80;2.40;;;;;;;;;;108004;1249;24080;-78
2023/04/26 08:46:52;;;;;;;8.30;4.20;;;;;;;;;;108163;1248;22574;-79
2023/04/26 08:49:21;;;;;;;9.70;3.20;;;;;;;;;;107901;1249;22539;-78
2023/04/26 08:51:48;;;;;;;11.10;5.10;;;;;;;;;;107184;1250;61961;-78
2023/04/26 08:54:16;;;;;;;5.20;2.50;;;;;;;;;;107804;1249;59295;-78
2023/04/26 08:56:43;;;;;;;6.60;4.00;;;;;;;;;;107753;1249;56717;-78
2023/04/26 08:59:09;;;;;;;9.80;5.10;;;;;;;;;;107687;1250;56416;-78
2023/04/26 09:01:38;;;;;;;6.40;3.10;;;;;;;;;;107800;1252;57621;-78
2023/04/26 09:04:04;;;;;;;7.90;3.30;;;;;;;;;;107623;1250;61945;-78
2023/04/26 09:06:31;;;;;;;8.90;3.10;;;;;;;;;;107586;1252;60309;-78
2023/04/26 09:08:58;;;;;;;4.70;3.20;;;;;;;;;;107879;1250;36872;-78
2023/04/26 09:11:24;;;;;;;6.00;2.90;;;;;;;;;;107561;1250;62014;-78
2023/04/26 09:13:51;;;;;;;7.00;2.70;;;;;;;;;;107872;1252;24973;-78
2023/04/26 09:16:17;;;;;;;3.40;2.40;;;;;;;;;;107394;1252;61606;-78
2023/04/26 09:18:49;;;;;;;4.20;2.80;;;;;;;;;;107173;1250;63320;-78
2023/04/26 09:21:17;;;;;;;5.70;2.50;;;;;;;;;;107515;1249;61890;-79
2023/04/26 09:23:55;;;;;;;8.00;3.40;;;;;;;;;;107739;1250;59192;-79
2023/04/26 09:26:22;;;;;;;9.20;3.40;;;;;;;;;;107079;1252;62013;-79
2023/04/26 09:28:49;;;;;;;5.70;2.80;;;;;;;;;;107077;1249;61956;-79
2023/04/26 09:31:34;;;;;;;4.70;2.50;;;;;;;;;;107124;1250;60109;-79
2023/04/26 09:34:00;;;;;;;9.60;3.20;;;;;;;;;;107043;1250;62105;-79
2023/04/26 09:36:27;;;;;;;9.00;2.70;;;;;;;;;;107320;1249;62028;-79
2023/04/26 09:38:53;;;;;;;5.70;2.70;;;;;;;;;;107395;1250;61602;-79
2023/04/26 09:41:20;;;;;;;8.30;3.30;;;;;;;;;;107167;1252;62116;-78
2023/04/26 09:43:47;;;;;;;6.70;2.60;;;;;;;;;;107475;1249;62117;-79
2023/04/26 09:46:20;;;;;;;8.40;3.80;;;;;;;;;;107587;1249;59356;-78
2023/04/26 09:48:50;;;;;;;8.70;4.00;;;;;;;;;;107493;1253;59777;-78
2023/04/26 09:51:16;;;;;;;7.50;3.60;;;;;;;;;;109916;1249;61686;-78
2023/04/26 09:53:46;;;;;;;7.50;3.40;;;;;;;;;;110193;1249;59830;-78
2023/04/26 09:56:17;;;;;;;6.00;3.80;;;;;;;;;;110456;1248;59227;-78
2023/04/26 09:58:47;;;;;;;11.70;3.00;;;;;;;;;;110331;1248;59860;-78
2023/04/26 10:01:15;;;;;;;7.40;2.80;;;;;;;;;;110624;1249;59717;-79
2023/04/26 10:03:41;;;;;;;7.60;3.20;;;;;;;;;;108141;1249;62032;-78
2023/04/26 10:06:08;;;;;;;7.60;3.70;;;;;;;;;;107680;1250;61968;-80
2023/04/26 10:08:35;;;;;;;8.30;3.00;;;;;;;;;;107217;1248;61941;-80
2023/04/26 10:11:06;;;;;;;6.70;3.30;;;;;;;;;;107303;1252;61984;-79
2023/04/26 10:13:32;;;;;;;8.50;3.60;;;;;;;;;;107283;1252;62031;-79
2023/04/26 10:16:00;;;;;;;9.60;4.30;;;;;;;;;;107204;1250;61899;-79
2023/04/26 10:18:26;;;;;;;10.60;4.40;;;;;;;;;;107651;1252;61984;-79
2023/04/26 10:20:54;;;;;;;8.50;4.10;;;;;;;;;;107640;1250;61911;-79
2023/04/26 10:23:24;;;;;;;8.00;4.00;;;;;;;;;;107760;1250;56406;-79
2023/04/26 10:25:50;;;;;;;6.70;3.00;;;;;;;;;;107837;1250;59970;-79
2023/04/26 10:28:17;;;;;;;7.90;4.70;;;;;;;;;;107961;1249;58969;-79
2023/04/26 10:30:56;;;;;;;6.70;4.50;;;;;;;;;;107453;1250;62108;-79
2023/04/26 10:33:23;;;;;;;8.40;3.70;;;;;;;;;;107785;1248;58313;-79
2023/04/26 10:36:01;;;;;;;9.30;3.00;;;;;;;;;;107208;1252;62022;-79
2023/04/26 10:38:28;;;;;;;15.70;5.60;;;;;;;;;;106989;1252;62602;-79
2023/04/26 10:40:55;;;;;;;14.20;6.50;;;;;;;;;;107104;1252;62044;-79
2023/04/26 10:43:28;;;;;;;15.00;5.20;;;;;;;;;;107652;1249;61944;-79
2023/04/26 10:45:57;;;;;;;8.60;3.30;;;;;;;;;;107393;1250;62012;-78
2023/04/26 10:48:27;;;;;;;12.20;3.70;;;;;;;;;;107312;1252;61974;-79
2023/04/26 10:50:56;;;;;;;5.80;2.80;;;;;;;;;;107445;1250;62036;-79
2023/04/26 10:53:22;;;;;;;12.50;3.20;;;;;;;;;;107688;1249;62375;-79
2023/04/26 10:55:49;;;;;;;7.60;3.90;;;;;;;;;;107546;1249;61933;-79
2023/04/26 10:58:28;;;;;;;6.60;3.30;;;;;;;;;;107712;1248;62032;-79
2023/04/26 11:01:07;;;;;;;5.90;2.90;;;;;;;;;;107968;1248;38365;-78
2023/04/26 11:03:33;;;;;;;7.20;3.60;;;;;;;;;;107588;1249;61971;-78
2023/04/26 11:06:01;;;;;;;9.30;2.80;;;;;;;;;;107157;1249;62005;-78
2023/04/26 11:08:29;;;;;;;5.10;3.30;;;;;;;;;;107325;1250;62039;-78
2023/04/26 11:11:04;;;;;;;9.50;2.60;;;;;;;;;;107591;1248;60328;-78
2023/04/26 11:13:31;;;;;;;8.40;3.90;;;;;;;;;;108329;1250;59349;-78
2023/04/26 11:16:07;;;;;;;7.80;2.90;;;;;;;;;;107459;1248;62031;-78
2023/04/26 11:18:34;;;;;;;9.60;4.10;;;;;;;;;;107412;1250;61929;-78
2023/04/26 11:21:01;;;;;;;8.80;5.10;;;;;;;;;;108809;1250;61964;-78
2023/04/26 11:23:28;;;;;;;11.40;3.40;;;;;;;;;;107178;1250;62436;-78
2023/04/26 11:25:58;;;;;;;5.20;2.30;;;;;;;;;;107170;1249;62003;-78
2023/04/26 11:28:24;;;;;;;10.60;2.60;;;;;;;;;;107206;1250;62019;-78
2023/04/26 11:30:51;;;;;;;6.90;2.80;;;;;;;;;;107051;1249;62166;-78
2023/04/26 11:33:18;;;;;;;7.80;3.20;;;;;;;;;;106956;1252;61967;-78
2023/04/26 11:35:45;;;;;;;8.90;2.80;;;;;;;;;;106944;1249;61953;-78
2023/04/26 11:38:12;;;;;;;6.90;2.80;;;;;;;;;;107040;1250;62150;-78
2023/04/26 11:40:39;;;;;;;4.50;2.60;;;;;;;;;;107183;1250;61926;-78
2023/04/26 11:43:05;;;;;;;3.80;2.30;;;;;;;;;;107756;1250;44107;-78
2023/04/26 11:45:32;;;;;;;5.40;2.50;;;;;;;;;;107810;1250;22542;-78
2023/04/26 11:47:59;;;;;;;13.10;8.60;;;;;;;;;;107745;1250;22531;-78
2023/04/26 11:50:25;;;;;;;16.80;8.50;;;;;;;;;;110315;1249;61940;-78
2023/04/26 11:52:53;;;;;;;14.10;7.90;;;;;;;;;;108901;1249;59283;-78
2023/04/26 11:55:23;;;;;;;11.70;7.90;;;;;;;;;;107768;1252;56774;-80
2023/04/26 11:57:49;;;;;;;11.00;7.40;;;;;;;;;;108076;1249;61998;-77
2023/04/26 12:00:16;;;;;;;7.60;3.00;;;;;;;;;;107138;1250;61958;-78
2023/04/26 12:02:43;;;;;;;11.70;5.40;;;;;;;;;;106959;1249;62062;-77
2023/04/26 12:05:10;;;;;;;6.50;3.20;;;;;;;;;;106895;1250;62007;-78
2023/04/26 12:07:36;;;;;;;7.90;4.10;;;;;;;;;;107774;1250;61574;-78
2023/04/26 12:10:12;;;;;;;7.50;2.80;;;;;;;;;;107915;1250;23114;-78
2023/04/26 12:12:42;;;;;;;5.60;3.00;;;;;;;;;;107015;1251;62028;-78
2023/04/26 12:15:11;;;;;;;5.20;2.90;;;;;;;;;;106900;1252;62134;-78
2023/04/26 12:17:38;;;;;;;6.70;2.20;;;;;;;;;;107003;1250;62042;-78
2023/04/26 12:20:11;;;;;;;8.10;2.70;;;;;;;;;;106985;1249;62063;-78
2023/04/26 12:22:38;;;;;;;8.00;2.50;;;;;;;;;;107407;1249;59991;-78
2023/04/26 12:25:09;;;;;;;9.50;2.30;;;;;;;;;;107572;1250;62030;-78
2023/04/26 12:27:35;;;;;;;5.40;2.20;;;;;;;;;;108010;1249;60054;-80
2023/04/26 12:30:01;;;;;;;5.60;2.30;;;;;;;;;;107549;1252;61910;-79
2023/04/26 12:32:28;;;;;;;5.00;1.90;;;;;;;;;;107303;1249;62019;-79
2023/04/26 12:34:54;;;;;;;5.90;1.90;;;;;;;;;;107388;1252;62032;-79
2023/04/26 12:37:21;;;;;;;4.30;1.80;;;;;;;;;;107616;1250;60342;-79
2023/04/26 12:39:47;;;;;;;7.70;2.60;;;;;;;;;;107560;1248;61936;-79
2023/04/26 12:42:13;;;;;;;4.90;1.90;;;;;;;;;;107500;1252;59947;-79
2023/04/26 12:44:42;;;;;;;4.00;2.00;;;;;;;;;;107707;1250;60693;-79
2023/04/26 12:47:08;;;;;;;4.30;1.90;;;;;;;;;;107548;1250;62038;-79
2023/04/26 12:49:35;;;;;;;8.80;2.60;;;;;;;;;;107814;1250;59297;-79
2023/04/26 12:52:01;;;;;;;5.60;1.90;;;;;;;;;;108938;1249;58990;-77
2023/04/26 12:54:27;;;;;;;5.70;1.90;;;;;;;;;;107802;1249;42107;-79
2023/04/26 12:56:54;;;;;;;5.90;2.10;;;;;;;;;;107469;1248;59182;-79
2023/04/26 12:59:21;;;;;;;5.50;2.60;;;;;;;;;;107342;1249;62002;-79
2023/04/26 13:01:47;;;;;;;5.10;2.30;;;;;;;;;;107833;1250;59279;-79
2023/04/26 13:04:14;;;;;;;5.60;2.50;;;;;;;;;;106898;1250;62137;-79
2023/04/26 13:06:40;;;;;;;8.60;2.10;;;;;;;;;;106957;1251;61226;-79
2023/04/26 13:09:07;;;;;;;4.40;1.80;;;;;;;;;;106997;1249;62028;-79
2023/04/26 13:11:33;;;;;;;4.80;1.90;;;;;;;;;;107050;1250;62120;-79
2023/04/26 13:14:00;;;;;;;14.20;8.10;;;;;;;;;;106960;1252;62041;-79
2023/04/26 13:16:27;;;;;;;5.70;2.10;;;;;;;;;;106926;1249;62053;-79
2023/04/26 13:18:54;;;;;;;4.60;2.00;;;;;;;;;;106925;1252;62069;-79
2023/04/26 13:21:21;;;;;;;4.20;1.50;;;;;;;;;;106954;1250;62027;-79
2023/04/26 13:23:48;;;;;;;3.20;1.20;;;;;;;;;;107891;1252;62072;-79
2023/04/26 13:26:16;;;;;;;5.10;2.70;;;;;;;;;;106969;1252;61938;-79
2023/04/26 13:28:42;;;;;;;7.10;2.90;;;;;;;;;;106928;1252;62128;-80
2023/04/26 13:31:08;;;;;;;9.60;4.90;;;;;;;;;;107041;1250;62042;-80
2023/04/26 13:33:35;;;;;;;5.40;2.10;;;;;;;;;;106994;1249;62135;-80
2023/04/26 13:36:01;;;;;;;8.90;2.20;;;;;;;;;;106928;1249;62129;-79
2023/04/26 13:38:27;;;;;;;5.30;3.00;;;;;;;;;;107134;1249;62252;-78
2023/04/26 13:40:54;;;;;;;3.70;1.90;;;;;;;;;;107212;1252;62077;-78
2023/04/26 13:43:20;;;;;;;6.20;2.40;;;;;;;;;;107097;1252;62014;-78
2023/04/26 13:45:47;;;;;;;7.90;4.20;;;;;;;;;;107134;1253;62091;-78
2023/04/26 13:48:13;;;;;;;4.90;1.90;;;;;;;;;;107170;1250;62061;-78
2023/04/26 13:50:39;;;;;;;4.70;2.90;;;;;;;;;;107172;1249;62044;-78
2023/04/26 13:53:06;;;;;;;4.00;1.80;;;;;;;;;;107117;1252;62056;-79
2023/04/26 13:55:32;;;;;;;7.50;3.70;;;;;;;;;;107082;1250;62057;-78
2023/04/26 13:57:58;;;;;;;7.70;3.20;;;;;;;;;;107102;1250;62137;-78
2023/04/26 14:00:26;;;;;;;7.90;3.90;;;;;;;;;;106965;1252;192860;-78
2023/04/26 14:02:52;;;;;;;6.80;3.70;;;;;;;;;;106907;1248;62126;-78
2023/04/26 14:05:19;;;;;;;14.20;8.20;;;;;;;;;;106849;1252;62063;-78
2023/04/26 14:07:45;;;;;;;17.00;9.00;;;;;;;;;;106908;1253;62729;-78
2023/04/26 14:10:12;;;;;;;8.20;3.50;;;;;;;;;;107078;1250;61876;-78
2023/04/26 14:12:38;;;;;;;6.20;3.10;;;;;;;;;;107012;1252;62242;-78
2023/04/26 14:15:05;;;;;;;10.10;4.30;;;;;;;;;;107145;1249;64202;-78
2023/04/26 14:17:32;;;;;;;10.60;4.30;;;;;;;;;;107135;1252;62145;-78
2023/04/26 14:19:58;;;;;;;6.70;2.70;;;;;;;;;;107134;1249;61974;-78
2023/04/26 14:22:25;;;;;;;7.30;2.60;;;;;;;;;;107056;1252;62132;-78